| Date | Time | Temp. (oF) | Dew Point (oF) | Rel. Hum. (%) | Press. (in.) | Wind Dir. | Wind Speed (mph) | Hourly Rainfall (in.) |
|
|---|---|---|---|---|---|---|---|---|---|
| 1 | 10/14 | 00:00 | 47 | 35 | 63 | 30.20 | NW | 2 | 0.00 |
| 2 | 10/13 | 23:00 | 49 | 34 | 57 | 30.20 | N | 9 | 0.00 |
| 3 | miss | miss | miss | miss | miss | miss | miss | miss | |
| 4 | 10/13 | 22:16 | 50 | 36 | 59 | 30.19 | NE | 4 | 0.00 |
| 5 | miss | miss | miss | miss | miss | miss | miss | miss | |
| 6 | 10/13 | 22:14 | 50 | 36 | 59 | 30.20 | NNE | 7 | 0.00 |
| 7 | miss | miss | miss | miss | miss | miss | miss | miss | |
| 8 | 10/13 | 22:12 | 50 | 35 | 58 | 30.20 | N | 8 | 0.00 |
| 9 | miss | miss | miss | miss | miss | miss | miss | miss | |
| 10 | 10/13 | 22:10 | 50 | 36 | 59 | 30.20 | N | 3 | 0.00 |
| 11 | miss | miss | miss | miss | miss | miss | miss | miss | |
| 12 | 10/13 | 22:08 | 50 | 36 | 59 | 30.20 | N | 7 | 0.00 |
| 13 | miss | miss | miss | miss | miss | miss | miss | miss | |
| 14 | 10/13 | 22:06 | 50 | 37 | 61 | 30.20 | NNE | 5 | 0.00 |
| 15 | miss | miss | miss | miss | miss | miss | miss | miss | |
| 16 | 10/13 | 22:04 | 50 | 37 | 61 | 30.20 | NNW | 4 | 0.00 |
| 17 | miss | miss | miss | miss | miss | miss | miss | miss | |
| 18 | 10/13 | 22:02 | 50 | 36 | 60 | 30.20 | N | 6 | 0.00 |
| 19 | miss | miss | miss | miss | miss | miss | miss | miss | |
| 20 | 10/13 | 22:00 | 50 | 37 | 61 | 30.20 | NNE | 10 | 0.00 |
| 21 | 10/13 | 21:59 | 50 | 37 | 61 | 30.20 | NNE | 5 | 0.00 |
| 22 | 10/13 | 21:58 | 50 | 37 | 61 | 30.20 | N | 6 | 0.00 |
| 23 | 10/13 | 21:57 | 50 | 37 | 61 | 30.20 | N | 9 | 0.00 |
| 24 | 10/13 | 21:56 | 50 | 37 | 61 | 30.20 | NNE | 8 | 0.00 |
| 25 | miss | miss | miss | miss | miss | miss | miss | miss | |
| 26 | 10/13 | 21:55 | 50 | 37 | 61 | 30.20 | NNW | 7 | 0.00 |
| 27 | 10/13 | 21:55 | 50 | 37 | 61 | 30.20 | NNW | 7 | 0.00 |
| 28 | 10/13 | 21:00 | 51 | 39 | 64 | 30.20 | NNW | 3 | 0.00 |
| 29 | 10/13 | 20:00 | 52 | 38 | 61 | 30.18 | N | 1 | 0.00 |
| 30 | miss | miss | miss | miss | miss | miss | miss | miss | |
| 31 | 10/13 | 19:36 | 53 | 39 | 59 | 30.17 | NNW | 10 | 0.00 |
| 32 | miss | miss | miss | miss | miss | miss | miss | miss | |
| 33 | 10/13 | 19:34 | 53 | 39 | 59 | 30.17 | NNE | 8 | 0.00 |
| 34 | miss | miss | miss | miss | miss | miss | miss | miss | |
| 35 | 10/13 | 19:32 | 54 | 39 | 59 | 30.17 | NNW | 4 | 0.00 |
| 36 | miss | miss | miss | miss | miss | miss | miss | miss | |
| 37 | 10/13 | 19:30 | 54 | 39 | 59 | 30.16 | N | 9 | 0.00 |
| 38 | miss | miss | miss | miss | miss | miss | miss | miss | |
| 39 | 10/13 | 19:28 | 54 | 39 | 59 | 30.17 | N | 6 | 0.00 |
| 40 | miss | miss | miss | miss | miss | miss | miss | miss | |
| 41 | 10/13 | 19:26 | 54 | 39 | 59 | 30.17 | N | 8 | 0.00 |
| 42 | miss | miss | miss | miss | miss | miss | miss | miss | |
| 43 | 10/13 | 19:24 | 54 | 39 | 59 | 30.17 | NNW | 6 | 0.00 |
| 44 | miss | miss | miss | miss | miss | miss | miss | miss | |
| 45 | 10/13 | 19:22 | 54 | 39 | 59 | 30.17 | NW | 5 | 0.00 |
| 46 | miss | miss | miss | miss | miss | miss | miss | miss | |
| 47 | 10/13 | 19:20 | 54 | 39 | 59 | 30.17 | N | 4 | 0.00 |
| 48 | miss | miss | miss | miss | miss | miss | miss | miss | |
| 49 | 10/13 | 19:18 | 54 | 40 | 60 | 30.17 | NNE | 16 | 0.00 |
| 50 | miss | miss | miss | miss | miss | miss | miss | miss | |
| 51 | 10/13 | 19:18 | 54 | 40 | 60 | 30.17 | NNE | 16 | 0.00 |
| 52 | miss | miss | miss | miss | miss | miss | miss | miss | |
| 53 | 10/13 | 19:18 | 54 | 40 | 60 | 30.17 | NNE | 16 | 0.00 |
| 54 | 10/13 | 19:00 | 54 | 39 | 59 | 30.16 | NNE | 8 | 0.00 |
| 55 | 10/13 | 18:00 | 59 | 41 | 52 | 30.09 | N | 9 | 0.00 |
| 56 | 10/13 | 17:00 | 62 | 43 | 51 | 30.04 | NNW | 5 | 0.00 |
| 57 | 10/13 | 16:00 | 62 | 44 | 52 | 30.02 | N | 7 | 0.00 |
| 58 | 10/13 | 15:00 | 62 | 45 | 55 | 30.02 | NW | 9 | 0.00 |
| 59 | 10/13 | 14:00 | 62 | 49 | 63 | 30.02 | N | 4 | 0.00 |
| 60 | 10/13 | 13:00 | 64 | 52 | 66 | 30.03 | NNE | 8 | 0.00 |
| 61 | miss | miss | miss | miss | miss | miss | miss | miss | |
| 62 | 10/13 | 08:50 | 50 | 48 | 94 | 30.05 | NW | 0 | 0.00 |
| 63 | miss | miss | miss | miss | miss | miss | miss | miss | |
| 64 | 10/13 | 08:50 | 50 | 48 | 94 | 30.05 | NW | 0 | 0.00 |
| 65 | 10/13 | 08:00 | 48 | 46 | 96 | 30.05 | SSE | 0 | 0.00 |
| 66 | 10/13 | 07:00 | 48 | 46 | 95 | 30.05 | NNE | 1 | 0.00 |
| 67 | 10/13 | 06:00 | 48 | 46 | 94 | 30.07 | S | 0 | 0.00 |
| 68 | 10/13 | 05:00 | 48 | 45 | 92 | 30.09 | N | 0 | 0.00 |
| 69 | 10/13 | 04:00 | 48 | 45 | 92 | 30.09 | NNW | 0 | 0.00 |
| 70 | 10/13 | 03:00 | 47 | 44 | 92 | 30.11 | NNE | 0 | 0.00 |
| 71 | 10/13 | 02:00 | 47 | 44 | 92 | 30.13 | S | 0 | 0.00 |
| 72 | 10/13 | 01:00 | 47 | 43 | 89 | 30.16 | SE | 3 | 0.00 |
| 73 | 10/13 | 00:00 | 46 | 43 | 90 | 30.18 | ESE | 0 | 0.00 |
| 74 | 10/12 | 23:00 | 46 | 43 | 90 | 30.20 | ESE | 0 | 0.00 |
| 75 | 10/12 | 22:00 | 46 | 42 | 89 | 30.21 | SSE | 0 | 0.00 |
| 76 | 10/12 | 21:00 | 46 | 40 | 82 | 30.23 | NNE | 0 | 0.00 |
| 77 | 10/12 | 20:00 | 46 | 40 | 80 | 30.22 | SE | 0 | 0.00 |
| 78 | 10/12 | 19:00 | 49 | 41 | 74 | 30.23 | ESE | 0 | 0.00 |
| 79 | 10/12 | 18:00 | 51 | 41 | 70 | 30.25 | SE | 3 | 0.00 |
| 80 | 10/12 | 17:00 | 52 | 40 | 66 | 30.27 | SE | 3 | 0.00 |
| 81 | 10/12 | 16:00 | 52 | 40 | 64 | 30.29 | SE | 1 | 0.00 |
| 82 | 10/12 | 15:00 | 52 | 37 | 58 | 30.29 | ESE | 5 | 0.00 |
| 83 | 10/12 | 14:00 | 51 | 36 | 58 | 30.32 | SE | 4 | 0.00 |
| 84 | 10/12 | 13:00 | 49 | 36 | 61 | 30.35 | ESE | 4 | 0.00 |
| 85 | 10/12 | 12:00 | 48 | 35 | 62 | 30.37 | NE | 6 | 0.00 |
| 86 | 10/12 | 11:00 | 47 | 36 | 66 | 30.37 | SSE | 4 | 0.00 |
| 87 | 10/12 | 10:00 | 46 | 37 | 73 | 30.37 | SE | 3 | 0.00 |
| 88 | 10/12 | 09:00 | 44 | 37 | 79 | 30.39 | ENE | 4 | 0.00 |
| 89 | 10/12 | 08:00 | 42 | 37 | 85 | 30.38 | ESE | 0 | 0.00 |
| 90 | 10/12 | 07:00 | 41 | 36 | 83 | 30.38 | ENE | 1 | 0.00 |
| 91 | 10/12 | 06:00 | 40 | 37 | 89 | 30.36 | ENE | 2 | 0.00 |
| 92 | 10/12 | 05:00 | 41 | 36 | 84 | 30.36 | NE | 0 | 0.00 |
| 93 | 10/12 | 04:00 | 43 | 37 | 80 | 30.35 | NNE | 3 | 0.00 |
| 94 | 10/12 | 03:00 | 44 | 37 | 78 | 30.33 | NNE | 3 | 0.00 |
| 95 | 10/12 | 02:00 | 43 | 37 | 82 | 30.31 | NNW | 0 | 0.00 |
| 96 | 10/12 | 01:00 | 47 | 38 | 73 | 30.30 | NE | 0 | 0.00 |
| 97 | 10/12 | 00:00 | 47 | 41 | 81 | 30.29 | N | 4 | 0.00 |
| 98 | 10/11 | 23:00 | 45 | 42 | 90 | 30.28 | WSW | 0 | 0.00 |
| 99 | 10/11 | 22:00 | 46 | 42 | 87 | 30.26 | NW | 0 | 0.00 |
| 100 | 10/11 | 21:00 | 48 | 42 | 81 | 30.24 | NW | 0 | 0.00 |
| 101 | 10/11 | 20:00 | 51 | 41 | 71 | 30.23 | NW | 0 | 0.00 |